Time;durP1;ratioP1;P1;durP2;ratioP2;P2;SDS_P1;SDS_P2;PMS_P1;PMS_P2;Temp;Humidity;BMP_temperature;BMP_pressure;BME280_temperature;BME280_humidity;BME280_pressure;Samples;Min_cycle;Max_cycle;Signal;HPM_P1;HPM_P2
2022/12/20 00:01:20;;;;;;;2.50;1.15;;;;;;;11.90;100.00;101178.47;4986066;28;20046;-71
2022/12/20 00:03:49;;;;;;;3.08;1.45;;;;;;;12.02;100.00;101183.59;4984354;28;20062;-70
2022/12/20 00:06:16;;;;;;;4.00;1.60;;;;;;;12.06;100.00;101180.84;4985172;28;20046;-71
2022/12/20 00:08:42;;;;;;;4.65;2.78;;;;;;;12.09;100.00;101180.06;4985916;28;20057;-74
2022/12/20 00:11:09;;;;;;;4.65;2.08;;;;;;;12.03;100.00;101178.84;4984635;28;20046;-72
2022/12/20 00:13:37;;;;;;;2.85;1.33;;;;;;;12.13;100.00;101180.84;4983616;28;20050;-71
2022/12/20 00:16:07;;;;;;;7.05;2.55;;;;;;;12.12;100.00;101182.03;4985082;28;20054;-74
2022/12/20 00:18:34;;;;;;;7.38;3.17;;;;;;;12.15;100.00;101172.94;4975009;28;20065;-71
2022/12/20 00:21:03;;;;;;;3.80;1.85;;;;;;;12.10;100.00;101170.53;4982715;28;21040;-74
2022/12/20 00:23:29;;;;;;;7.13;2.78;;;;;;;12.17;100.00;101168.56;4986319;28;20060;-72
2022/12/20 00:26:04;;;;;;;4.10;2.45;;;;;;;12.19;100.00;101166.16;4986319;28;20047;-70
2022/12/20 00:28:32;;;;;;;4.10;1.85;;;;;;;12.26;100.00;101165.38;4981033;28;20069;-70
2022/12/20 00:30:59;;;;;;;7.20;2.67;;;;;;;12.27;100.00;101148.34;4984359;28;20816;-73
2022/12/20 00:33:26;;;;;;;5.28;2.58;;;;;;;12.21;100.00;101138.81;4991131;28;20058;-71
2022/12/20 00:35:57;;;;;;;5.43;2.20;;;;;;;12.25;100.00;101147.16;4983821;28;20048;-73
2022/12/20 00:38:24;;;;;;;2.63;1.27;;;;;;;12.23;100.00;101149.53;5008115;28;20136;-70
2022/12/20 00:41:01;;;;;;;6.32;2.80;;;;;;;12.33;100.00;101132.06;5007435;28;20046;-71
2022/12/20 00:43:29;;;;;;;2.25;1.35;;;;;;;12.29;100.00;101140.41;5008287;28;20054;-71
2022/12/20 00:45:55;;;;;;;7.45;2.60;;;;;;;12.37;100.00;101135.63;5008296;28;20049;-73
2022/12/20 00:48:22;;;;;;;4.32;1.83;;;;;;;12.34;100.00;101128.91;4990247;28;20048;-71
2022/12/20 00:50:49;;;;;;;3.17;1.45;;;;;;;12.30;100.00;101130.91;5008037;28;20061;-72
2022/12/20 00:53:16;;;;;;;3.95;2.15;;;;;;;12.36;100.00;101128.50;5007617;28;20057;-72
2022/12/20 00:55:51;;;;;;;0.73;0.55;;;;;;;12.31;100.00;101126.13;5000761;28;20049;-71
2022/12/20 00:58:18;;;;;;;3.00;1.48;;;;;;;12.33;100.00;101137.63;5008305;28;20053;-72
2022/12/20 01:00:44;;;;;;;5.88;1.83;;;;;;;12.38;100.00;101135.22;5007222;28;20054;-72
2022/12/20 01:03:19;;;;;;;3.15;1.27;;;;;;;12.40;100.00;101134.84;5003717;28;20523;-72
2022/12/20 01:05:52;;;;;;;2.58;1.65;;;;;;;12.40;100.00;101135.63;5007685;28;20069;-73
2022/12/20 01:08:19;;;;;;;7.22;2.60;;;;;;;12.42;100.00;101130.47;5008225;28;20120;-71
2022/12/20 01:10:46;;;;;;;2.65;1.20;;;;;;;12.40;100.00;101129.28;5007647;28;20050;-73
2022/12/20 01:13:13;;;;;;;7.32;2.47;;;;;;;12.41;100.00;101125.31;5007932;28;20050;-70
2022/12/20 01:15:39;;;;;;;3.10;1.63;;;;;;;12.37;100.00;101127.31;5007021;28;20137;-72
2022/12/20 01:18:06;;;;;;;2.40;1.20;;;;;;;12.48;100.00;101122.50;5004018;28;20054;-71
2022/12/20 01:20:32;;;;;;;2.85;1.80;;;;;;;12.38;100.00;101113.03;5006179;28;20522;-72
2022/12/20 01:22:59;;;;;;;3.22;1.73;;;;;;;12.41;100.00;101122.53;5006265;28;20041;-72
2022/12/20 01:25:25;;;;;;;5.70;2.17;;;;;;;12.44;100.00;101116.19;5004583;28;20068;-72
2022/12/20 01:27:52;;;;;;;0.88;0.70;;;;;;;12.49;100.00;101116.56;5005695;28;20058;-73
2022/12/20 01:30:18;;;;;;;0.93;0.60;;;;;;;12.48;100.00;101117.78;5002252;28;20049;-73
2022/12/20 01:32:44;;;;;;;4.13;1.83;;;;;;;12.49;100.00;101124.13;5003255;28;20060;-71
2022/12/20 01:35:11;;;;;;;4.93;1.40;;;;;;;12.41;100.00;101111.44;5000908;28;20054;-71
2022/12/20 01:37:37;;;;;;;2.22;1.27;;;;;;;12.41;100.00;101112.25;5010159;28;20053;-71
2022/12/20 01:40:05;;;;;;;2.75;1.17;;;;;;;12.43;100.00;101109.84;5011694;28;20060;-71
2022/12/20 01:42:31;;;;;;;3.55;1.90;;;;;;;12.51;100.00;101121.72;5010626;28;20065;-71
2022/12/20 01:44:58;;;;;;;2.10;1.20;;;;;;;12.47;100.00;101126.50;5005758;28;20512;-72
2022/12/20 01:47:28;;;;;;;0.98;0.90;;;;;;;12.51;100.00;101116.97;5009423;28;20053;-73
2022/12/20 01:49:58;;;;;;;5.70;2.28;;;;;;;12.53;100.00;101122.91;4992056;28;20046;-71
2022/12/20 01:52:34;;;;;;;8.73;2.33;;;;;;;12.48;100.00;101117.78;5009458;28;20099;-72
2022/12/20 01:55:07;;;;;;;4.20;2.50;;;;;;;12.56;100.00;101105.44;5005468;28;20053;-72
2022/12/20 01:57:37;;;;;;;2.58;1.50;;;;;;;12.53;100.00;101099.91;5011150;28;20149;-71
2022/12/20 02:00:05;;;;;;;6.97;2.33;;;;;;;12.60;100.00;101102.66;5011332;28;20056;-73
2022/12/20 02:02:32;;;;;;;7.97;3.10;;;;;;;12.59;100.00;101107.41;4990854;28;20050;-72
2022/12/20 02:04:59;;;;;;;5.07;1.63;;;;;;;12.60;100.00;101088.78;5011372;28;20643;-71
2022/12/20 02:07:29;;;;;;;5.82;2.50;;;;;;;12.67;100.00;101097.91;5010982;28;20050;-71
2022/12/20 02:09:57;;;;;;;5.95;2.40;;;;;;;12.63;100.00;101094.31;5011313;28;20467;-71
2022/12/20 02:12:29;;;;;;;7.90;3.35;;;;;;;12.61;100.00;101093.94;4990287;28;20585;-72
2022/12/20 02:15:05;;;;;;;8.65;2.80;;;;;;;12.50;100.00;101090.41;5008615;28;20041;-73
2022/12/20 02:17:49;;;;;;;6.82;2.95;;;;;;;12.48;100.00;101087.25;5009898;28;20426;-70
2022/12/20 02:20:19;;;;;;;5.25;2.45;;;;;;;12.50;100.00;101092.38;5003697;28;20050;-70
2022/12/20 02:23:12;;;;;;;3.55;1.50;;;;;;;12.47;100.00;101085.66;5007802;28;20049;-71
2022/12/20 02:25:56;;;;;;;2.78;1.35;;;;;;;12.51;100.00;101080.09;5008162;28;20595;-70
2022/12/20 02:28:47;;;;;;;2.08;1.35;;;;;;;12.50;100.00;101086.84;5010890;28;20056;-71
2022/12/20 02:31:21;;;;;;;7.03;3.20;;;;;;;12.51;100.00;101080.88;5008632;28;20432;-71
2022/12/20 02:33:50;;;;;;;3.25;1.38;;;;;;;12.54;100.00;101095.94;4991525;28;20455;-71
2022/12/20 02:36:17;;;;;;;2.63;1.25;;;;;;;12.53;100.00;101091.59;4991353;28;20049;-71
2022/12/20 02:38:44;;;;;;;4.88;2.50;;;;;;;12.55;100.00;101092.75;5007074;28;20053;-71
2022/12/20 02:41:25;;;;;;;6.85;2.67;;;;;;;12.57;100.00;101076.50;5007204;28;20054;-69
2022/12/20 02:46:44;;;;;;;5.05;1.58;;;;;;;12.51;100.00;101086.44;5004354;28;20049;-71
2022/12/20 02:49:15;;;;;;;7.90;2.42;;;;;;;12.52;100.00;101088.00;5007615;28;20053;-72
2022/12/20 02:51:44;;;;;;;9.38;2.67;;;;;;;12.50;100.00;101081.28;5008603;28;20052;-72
2022/12/20 02:54:12;;;;;;;9.43;2.60;;;;;;;12.47;100.00;101085.66;5010205;28;20496;-72
2022/12/20 02:56:49;;;;;;;2.97;1.77;;;;;;;12.39;100.00;101069.44;5008013;28;20061;-72
2022/12/20 02:59:31;;;;;;;6.22;2.72;;;;;;;12.36;100.00;101076.56;5009476;28;20052;-73
2022/12/20 03:01:58;;;;;;;3.03;1.88;;;;;;;12.28;100.00;101071.41;5008689;28;20218;-71
2022/12/20 03:04:33;;;;;;;5.00;2.40;;;;;;;12.35;100.00;101071.41;4988140;28;20132;-72
2022/12/20 03:07:11;;;;;;;5.95;2.42;;;;;;;12.30;100.00;101069.06;5003051;28;20751;-71
2022/12/20 03:09:40;;;;;;;4.68;1.55;;;;;;;12.20;100.00;101076.22;5008227;28;20053;-72
2022/12/20 03:12:08;;;;;;;2.78;1.42;;;;;;;12.18;100.00;101077.78;5007245;28;20136;-71
2022/12/20 03:14:34;;;;;;;7.32;3.00;;;;;;;12.16;100.00;101077.41;5008785;28;20154;-73
2022/12/20 03:17:01;;;;;;;2.67;1.60;;;;;;;12.07;100.00;101079.78;5009215;28;20050;-71
2022/12/20 03:19:28;;;;;;;6.50;1.90;;;;;;;12.00;100.00;101077.03;5008033;28;20061;-71
2022/12/20 03:21:54;;;;;;;9.23;1.67;;;;;;;11.95;100.00;101077.44;5002898;28;20414;-72
2022/12/20 03:24:21;;;;;;;5.78;2.00;;;;;;;11.86;100.00;101088.13;5008670;28;20133;-72
2022/12/20 03:26:47;;;;;;;5.95;2.08;;;;;;;11.78;100.00;101092.13;5009752;28;20209;-71
2022/12/20 03:29:14;;;;;;;3.33;1.38;;;;;;;11.76;100.00;101094.47;5007671;28;20072;-70
2022/12/20 03:31:40;;;;;;;4.53;2.22;;;;;;;11.66;100.00;101093.28;5007230;28;20056;-71
2022/12/20 03:34:07;;;;;;;4.45;1.75;;;;;;;11.67;100.00;101103.19;5003108;28;20042;-71
2022/12/20 03:36:33;;;;;;;8.00;3.40;;;;;;;11.71;100.00;101089.34;5008707;28;20061;-70
2022/12/20 03:39:00;;;;;;;6.72;2.20;;;;;;;11.64;100.00;101092.88;5008243;28;20061;-71
2022/12/20 03:41:26;;;;;;;6.93;3.17;;;;;;;11.65;100.00;101094.47;5007161;28;20531;-70
2022/12/20 03:43:53;;;;;;;3.30;1.52;;;;;;;11.57;100.00;101078.19;5009016;28;20161;-71
2022/12/20 03:46:19;;;;;;;6.80;2.63;;;;;;;11.54;100.00;101090.09;5008491;28;20136;-74
2022/12/20 03:48:46;;;;;;;10.10;2.45;;;;;;;11.53;100.00;101072.66;5007557;28;20102;-72
2022/12/20 03:51:12;;;;;;;10.05;3.45;;;;;;;11.50;100.00;101062.38;5007266;28;20058;-71
2022/12/20 03:53:39;;;;;;;8.23;3.17;;;;;;;11.43;100.00;101059.59;5009021;28;20098;-72
2022/12/20 03:56:06;;;;;;;17.10;3.28;;;;;;;11.28;100.00;101060.78;5008500;28;20046;-72
2022/12/20 03:58:32;;;;;;;4.35;2.55;;;;;;;11.28;100.00;101058.00;5008131;28;20053;-72
2022/12/20 04:00:59;;;;;;;8.93;3.92;;;;;;;11.28;100.00;101057.19;5004088;28;20056;-72
2022/12/20 04:03:25;;;;;;;3.72;2.22;;;;;;;11.21;100.00;101059.97;5002242;28;20061;-71
2022/12/20 04:05:52;;;;;;;8.55;3.60;;;;;;;11.22;100.00;101054.03;5007800;28;20096;-71
2022/12/20 04:08:18;;;;;;;9.15;3.42;;;;;;;11.20;100.00;101061.94;5007717;28;20188;-70
2022/12/20 04:13:30;;;;;;;4.13;2.33;;;;;;;11.18;100.00;101041.34;5008547;28;20053;-72
2022/12/20 04:15:56;;;;;;;4.90;2.08;;;;;;;11.20;100.00;101042.53;5004198;28;20065;-71
2022/12/20 04:18:26;;;;;;;7.15;3.70;;;;;;;11.25;100.00;101050.47;5007448;28;20496;-71
2022/12/20 04:20:53;;;;;;;6.63;1.98;;;;;;;11.30;100.00;101052.06;5006070;28;20077;-73
2022/12/20 04:23:20;;;;;;;8.38;3.42;;;;;;;11.31;100.00;101056.41;5008610;28;20065;-71
2022/12/20 04:25:46;;;;;;;11.68;4.00;;;;;;;11.27;100.00;101047.31;5006643;28;20050;-72
2022/12/20 04:28:13;;;;;;;4.10;2.05;;;;;;;11.27;100.00;101061.16;5008246;28;20050;-73
2022/12/20 04:30:39;;;;;;;8.18;2.92;;;;;;;11.26;100.00;101063.13;5007746;28;20133;-70
2022/12/20 04:33:06;;;;;;;4.57;2.28;;;;;;;11.25;100.00;101060.75;5007706;28;20052;-72
2022/12/20 04:35:32;;;;;;;7.20;2.40;;;;;;;11.27;100.00;101052.84;5006889;28;20049;-70
2022/12/20 04:37:59;;;;;;;5.97;2.47;;;;;;;11.23;100.00;101046.50;5004323;28;20053;-71
2022/12/20 04:40:25;;;;;;;2.92;1.95;;;;;;;11.23;100.00;101058.38;5006424;28;21449;-72
2022/12/20 04:42:51;;;;;;;6.25;2.58;;;;;;;11.27;100.00;101047.31;5004997;28;20049;-71
2022/12/20 04:45:18;;;;;;;7.57;3.38;;;;;;;11.29;100.00;101050.47;5008653;28;20503;-72
2022/12/20 04:47:44;;;;;;;6.97;2.65;;;;;;;11.25;100.00;101041.38;5006963;28;20504;-72
2022/12/20 04:50:11;;;;;;;9.63;2.55;;;;;;;11.32;100.00;101046.91;4990040;28;20238;-71
2022/12/20 04:55:22;;;;;;;6.35;2.63;;;;;;;11.27;100.00;101056.41;5005207;28;20046;-71
2022/12/20 04:57:49;;;;;;;11.35;4.07;;;;;;;11.32;100.00;101053.25;5007490;28;20081;-71
2022/12/20 05:00:16;;;;;;;3.72;1.70;;;;;;;11.23;100.00;101052.84;5006576;28;20042;-72
2022/12/20 05:02:42;;;;;;;9.35;3.13;;;;;;;11.29;100.00;101062.34;5005532;28;20052;-70
2022/12/20 05:05:09;;;;;;;4.10;1.92;;;;;;;11.23;100.00;101063.91;4996644;28;20141;-72
2022/12/20 05:07:36;;;;;;;10.05;3.70;;;;;;;11.22;100.00;101053.22;5006728;28;20052;-71
2022/12/20 05:10:03;;;;;;;6.72;2.65;;;;;;;11.15;100.00;101054.03;5007539;28;20058;-72
2022/12/20 05:12:29;;;;;;;9.35;2.75;;;;;;;11.14;100.00;101046.88;5005726;28;20050;-72
2022/12/20 05:14:56;;;;;;;1.00;0.95;;;;;;;11.16;100.00;101041.75;5005355;28;20068;-70
2022/12/20 05:17:22;;;;;;;8.13;3.10;;;;;;;11.16;100.00;101049.25;4989426;28;20041;-70
2022/12/20 05:19:51;;;;;;;10.82;4.00;;;;;;;11.14;100.00;101048.88;4998893;28;20060;-70
2022/12/20 05:27:48;;;;;;;9.98;4.22;;;;;;;11.12;100.00;101042.94;5007111;28;20053;-71
2022/12/20 05:30:15;;;;;;;10.75;3.42;;;;;;;11.12;100.00;101031.84;5007233;28;20046;-71
2022/12/20 05:32:41;;;;;;;11.75;3.67;;;;;;;11.11;100.00;101033.03;5006785;28;20058;-71
2022/12/20 05:35:08;;;;;;;5.10;2.15;;;;;;;11.04;100.00;101028.28;5005454;28;20050;-71
2022/12/20 05:37:35;;;;;;;9.73;2.97;;;;;;;11.02;100.00;101027.06;5003547;28;20053;-72
2022/12/20 05:40:03;;;;;;;11.80;3.83;;;;;;;11.04;100.00;101016.41;5007468;28;20045;-71
2022/12/20 05:42:29;;;;;;;3.38;1.67;;;;;;;10.98;100.00;101012.44;5006656;28;20522;-72
2022/12/20 05:44:56;;;;;;;2.92;1.95;;;;;;;10.97;100.00;101005.31;5006304;28;20507;-72
2022/12/20 05:47:23;;;;;;;10.52;4.07;;;;;;;10.99;100.00;101002.94;5007162;28;20050;-72
2022/12/20 05:49:50;;;;;;;12.57;5.38;;;;;;;10.95;100.00;100996.63;5007855;28;20042;-72
2022/12/20 05:52:16;;;;;;;9.50;4.20;;;;;;;10.95;100.00;101007.69;5004229;28;20053;-72
2022/12/20 05:54:43;;;;;;;6.97;2.70;;;;;;;10.94;100.00;101008.88;4988580;28;20041;-71
2022/12/20 05:57:09;;;;;;;9.10;3.85;;;;;;;10.97;100.00;101002.56;5006156;28;20046;-72
2022/12/20 05:59:36;;;;;;;10.43;4.18;;;;;;;10.99;100.00;101000.16;5006856;28;20064;-72
2022/12/20 06:02:02;;;;;;;9.10;2.72;;;;;;;10.94;100.00;100992.28;5006785;28;20056;-72
2022/12/20 06:04:31;;;;;;;8.02;3.38;;;;;;;10.97;100.00;100994.25;5007245;28;20065;-70
2022/12/20 06:07:00;;;;;;;9.07;4.05;;;;;;;11.01;100.00;101000.59;5006075;28;20050;-72
2022/12/20 06:09:27;;;;;;;8.90;3.95;;;;;;;10.98;100.00;100993.06;5004920;28;20054;-71
2022/12/20 06:11:53;;;;;;;11.07;3.95;;;;;;;10.96;100.00;100999.00;5005602;28;20060;-73
2022/12/20 06:14:20;;;;;;;10.18;3.63;;;;;;;10.98;100.00;100987.53;4999902;28;20133;-70
2022/12/20 06:16:47;;;;;;;11.18;3.65;;;;;;;11.03;100.00;100984.38;5003985;28;20053;-70
2022/12/20 06:19:13;;;;;;;12.32;4.82;;;;;;;11.04;100.00;100984.00;5001948;28;20076;-70
2022/12/20 06:21:47;;;;;;;6.35;3.00;;;;;;;11.09;100.00;100996.63;5006084;28;20060;-73
2022/12/20 06:24:13;;;;;;;10.52;4.60;;;;;;;11.15;100.00;100995.06;5005239;28;20617;-72
2022/12/20 06:26:40;;;;;;;10.77;3.95;;;;;;;11.16;100.00;100999.41;4992647;28;20046;-72
2022/12/20 06:29:09;;;;;;;9.93;3.95;;;;;;;11.23;100.00;100988.31;5011223;28;20065;-72
2022/12/20 06:31:35;;;;;;;4.32;1.88;;;;;;;11.19;100.00;100990.31;5008380;28;20077;-72
2022/12/20 06:34:02;;;;;;;8.73;3.00;;;;;;;11.22;100.00;100984.78;5006292;28;20082;-71
2022/12/20 06:36:28;;;;;;;11.52;3.72;;;;;;;11.28;100.00;100987.94;5006429;28;20504;-70
2022/12/20 06:38:55;;;;;;;8.15;3.97;;;;;;;11.31;100.00;100998.25;5007257;28;20053;-72
2022/12/20 06:41:21;;;;;;;7.32;2.97;;;;;;;11.29;100.00;100995.88;5012534;28;20516;-72
2022/12/20 06:43:48;;;;;;;8.93;4.40;;;;;;;11.36;100.00;100982.00;5005809;28;20046;-72
2022/12/20 06:46:14;;;;;;;11.50;4.53;;;;;;;11.38;100.00;100987.97;5006351;28;20042;-72
2022/12/20 06:48:41;;;;;;;6.97;3.70;;;;;;;11.38;100.00;100981.63;5013127;28;20072;-71
2022/12/20 06:51:07;;;;;;;12.82;4.18;;;;;;;11.39;100.00;100970.16;5009288;28;20054;-72
2022/12/20 06:53:34;;;;;;;1.55;0.95;;;;;;;11.41;100.00;100981.59;4992435;28;20054;-72
2022/12/20 06:56:01;;;;;;;6.82;2.97;;;;;;;11.43;100.00;100973.69;5009358;28;20133;-70
2022/12/20 06:58:27;;;;;;;3.35;1.55;;;;;;;11.44;100.00;100957.88;5012357;28;20515;-72
2022/12/20 07:00:54;;;;;;;10.00;3.70;;;;;;;11.58;100.00;100968.94;5007244;28;20427;-72
2022/12/20 07:03:20;;;;;;;11.05;4.25;;;;;;;11.57;100.00;100962.59;5007410;28;20048;-71
2022/12/20 07:05:54;;;;;;;5.70;2.47;;;;;;;11.53;100.00;100949.94;5010071;28;20050;-72
2022/12/20 07:08:21;;;;;;;7.13;2.83;;;;;;;11.58;100.00;100950.31;5008410;28;20053;-73
2022/12/20 07:10:48;;;;;;;7.53;3.55;;;;;;;11.58;100.00;100949.53;5009012;28;20054;-70
2022/12/20 07:13:15;;;;;;;9.02;4.00;;;;;;;11.59;100.00;100948.34;5009352;28;20050;-71
2022/12/20 07:15:41;;;;;;;8.18;3.58;;;;;;;11.61;100.00;100938.47;5003176;28;20054;-71
2022/12/20 07:18:09;;;;;;;8.55;3.22;;;;;;;11.68;100.00;100946.00;5008838;28;20120;-71
2022/12/20 07:20:35;;;;;;;12.88;4.22;;;;;;;11.66;100.00;100948.38;5009747;28;20141;-72
2022/12/20 07:23:02;;;;;;;7.88;2.67;;;;;;;11.68;100.00;100946.00;5008060;28;20070;-72
2022/12/20 07:25:28;;;;;;;9.05;4.05;;;;;;;11.72;100.00;100941.22;5008441;28;20065;-72
2022/12/20 07:27:55;;;;;;;7.93;2.83;;;;;;;11.75;100.00;100951.53;5009233;28;20797;-70
2022/12/20 07:30:22;;;;;;;1.88;1.38;;;;;;;11.78;100.00;100942.41;5005969;28;20061;-71
2022/12/20 07:32:48;;;;;;;6.45;2.47;;;;;;;11.76;100.00;100942.81;5006615;28;20049;-72
2022/12/20 07:35:15;;;;;;;10.68;3.45;;;;;;;11.80;100.00;100937.25;5007413;28;20056;-73
2022/12/20 07:37:42;;;;;;;5.90;2.63;;;;;;;11.76;100.00;100922.59;5006760;28;20085;-70
2022/12/20 07:40:10;;;;;;;3.25;2.13;;;;;;;11.80;100.00;100935.28;5009115;28;20149;-71
2022/12/20 07:42:37;;;;;;;8.02;3.38;;;;;;;11.87;100.00;100934.44;5007008;28;20054;-70
2022/12/20 07:45:14;;;;;;;6.80;2.05;;;;;;;11.92;100.00;100934.81;5008850;28;20057;-71
2022/12/20 07:47:40;;;;;;;6.40;2.70;;;;;;;11.95;100.00;100947.13;5005946;28;20049;-72
2022/12/20 07:50:07;;;;;;;8.05;3.42;;;;;;;12.02;100.00;100928.44;4995436;28;20180;-72
2022/12/20 07:52:35;;;;;;;10.40;3.47;;;;;;;11.98;100.00;100933.22;4983237;28;20587;-73
2022/12/20 07:55:04;;;;;;;9.52;3.75;;;;;;;11.99;100.00;100934.81;4983324;28;20056;-73
2022/12/20 07:57:36;;;;;;;10.35;3.45;;;;;;;11.97;100.00;100926.09;4981233;28;20073;-70
2022/12/20 08:00:04;;;;;;;6.35;2.55;;;;;;;12.00;100.00;100938.38;4985146;28;20056;-71
2022/12/20 08:02:35;;;;;;;5.00;1.95;;;;;;;12.05;100.00;100924.09;4952030;28;20053;-71
2022/12/20 08:05:06;;;;;;;9.45;3.58;;;;;;;12.03;100.00;100932.03;4965715;28;20101;-71
2022/12/20 08:07:33;;;;;;;9.68;3.35;;;;;;;12.07;100.00;100928.06;4986280;28;20908;-71
2022/12/20 08:10:00;;;;;;;4.97;2.47;;;;;;;11.99;100.00;100932.06;4981182;28;20046;-72
2022/12/20 08:12:29;;;;;;;3.13;1.58;;;;;;;12.05;100.00;100932.44;4988901;28;20132;-73
2022/12/20 08:14:57;;;;;;;4.90;2.05;;;;;;;12.07;100.00;100938.34;4987979;28;20045;-71
2022/12/20 08:17:24;;;;;;;5.30;3.63;;;;;;;12.08;100.00;100931.63;4989999;28;20068;-72
2022/12/20 08:19:50;;;;;;;5.43;1.77;;;;;;;12.07;100.00;100935.56;4987595;28;20050;-71
2022/12/20 08:22:18;;;;;;;3.33;1.90;;;;;;;12.11;100.00;100939.91;4982350;28;20049;-72
2022/12/20 08:24:45;;;;;;;6.60;2.92;;;;;;;12.16;100.00;100928.41;4985278;28;20865;-72
2022/12/20 08:27:11;;;;;;;7.78;2.80;;;;;;;12.16;100.00;100922.06;4985338;28;20060;-72
2022/12/20 08:29:38;;;;;;;11.90;3.45;;;;;;;12.22;100.00;100918.47;4983978;28;20099;-69
2022/12/20 08:32:04;;;;;;;3.53;2.22;;;;;;;12.26;100.00;100916.47;4984148;28;20050;-67
2022/12/20 08:34:31;;;;;;;5.32;2.38;;;;;;;12.31;100.00;100920.81;4985063;28;20809;-74
2022/12/20 08:36:58;;;;;;;2.30;1.58;;;;;;;12.32;100.00;100914.06;4986352;28;20046;-72
2022/12/20 08:39:24;;;;;;;8.32;3.03;;;;;;;12.37;100.00;100910.88;4985799;28;20050;-72
2022/12/20 08:41:51;;;;;;;6.85;2.78;;;;;;;12.40;100.00;100898.97;4983351;28;20840;-72
2022/12/20 08:44:18;;;;;;;1.45;0.95;;;;;;;12.40;100.00;100899.75;4985498;28;20073;-71
2022/12/20 08:46:44;;;;;;;2.15;1.30;;;;;;;12.45;100.00;100904.06;4984774;28;20512;-73
2022/12/20 08:49:11;;;;;;;3.75;1.45;;;;;;;12.48;100.00;100903.25;4986461;28;20162;-72
2022/12/20 08:51:37;;;;;;;4.72;2.38;;;;;;;12.59;100.00;100915.13;4984714;28;20057;-72
2022/12/20 08:54:04;;;;;;;7.25;2.70;;;;;;;12.61;100.00;100905.19;4979540;28;20049;-73
2022/12/20 08:56:30;;;;;;;4.13;2.13;;;;;;;12.60;100.00;100914.72;4985815;28;20061;-73
2022/12/20 08:58:57;;;;;;;5.18;2.80;;;;;;;12.65;100.00;100917.03;4969763;28;20054;-73
2022/12/20 09:01:25;;;;;;;9.10;3.33;;;;;;;12.67;100.00;100914.66;4986075;28;20057;-72
2022/12/20 09:03:52;;;;;;;8.55;1.90;;;;;;;12.70;100.00;100921.38;4982457;28;20104;-74
2022/12/20 09:06:21;;;;;;;0.80;0.77;;;;;;;12.76;100.00;100911.44;4986045;28;20050;-72
2022/12/20 09:08:48;;;;;;;7.28;2.58;;;;;;;12.80;100.00;100915.75;4985678;28;20052;-72
2022/12/20 09:11:20;;;;;;;3.05;1.52;;;;;;;12.82;100.00;100909.78;4984006;28;20352;-72
2022/12/20 09:13:50;;;;;;;1.63;1.25;;;;;;;12.84;100.00;100908.19;4984519;28;20053;-72
2022/12/20 09:16:18;;;;;;;6.63;2.83;;;;;;;12.90;100.00;100905.78;4987852;28;20054;-71
2022/12/20 09:18:53;;;;;;;6.63;2.40;;;;;;;12.86;100.00;100911.34;4969593;28;20137;-74
2022/12/20 09:21:29;;;;;;;5.95;2.08;;;;;;;12.86;100.00;100919.66;4986458;28;20059;-73
2022/12/20 09:23:56;;;;;;;3.97;1.60;;;;;;;12.89;100.00;100918.06;4984989;28;20057;-71
2022/12/20 09:26:23;;;;;;;3.92;1.92;;;;;;;12.91;100.00;100918.44;4965244;28;21093;-73
2022/12/20 09:28:50;;;;;;;6.97;2.17;;;;;;;12.95;100.00;100911.69;4983511;28;20057;-71
2022/12/20 09:31:19;;;;;;;7.93;2.50;;;;;;;12.94;100.00;100917.63;4985608;28;20526;-74
2022/12/20 09:33:47;;;;;;;7.55;2.45;;;;;;;12.95;100.00;100913.66;4986519;28;20057;-71
2022/12/20 09:36:16;;;;;;;3.60;1.95;;;;;;;12.94;100.00;100928.75;4985352;28;20053;-71
2022/12/20 09:38:43;;;;;;;8.95;2.90;;;;;;;12.95;100.00;100930.31;4984826;28;20910;-71
2022/12/20 09:41:25;;;;;;;5.97;2.53;;;;;;;12.99;100.00;100925.56;4986341;28;20185;-71
2022/12/20 09:43:51;;;;;;;4.70;1.80;;;;;;;13.02;100.00;100922.75;4985982;28;20045;-72
2022/12/20 09:46:18;;;;;;;8.93;2.47;;;;;;;13.02;100.00;100923.97;4987233;28;20816;-73
2022/12/20 09:48:46;;;;;;;7.65;3.00;;;;;;;12.99;100.00;100925.56;4986906;28;20060;-73
2022/12/20 09:51:53;;;;;;;10.32;2.55;;;;;;;12.96;100.00;100937.44;4981249;28;20600;-73
2022/12/20 09:54:41;;;;;;;1.75;1.05;;;;;;;13.02;100.00;100923.97;4984658;28;20049;-71
2022/12/20 09:57:28;;;;;;;6.32;2.40;;;;;;;12.98;100.00;100924.78;4983575;28;20054;-72
2022/12/20 09:59:57;;;;;;;8.88;2.60;;;;;;;12.99;100.00;100923.56;4984502;28;20061;-72
2022/12/20 10:02:29;;;;;;;7.38;1.70;;;;;;;12.92;100.00;100931.13;4987344;28;20060;-73
2022/12/20 10:05:19;;;;;;;5.15;2.10;;;;;;;12.91;100.00;100924.00;4987472;28;20143;-72
2022/12/20 10:08:16;;;;;;;7.18;3.03;;;;;;;12.92;100.00;100914.47;4988659;28;20104;-72
2022/12/20 10:11:21;;;;;;;5.03;2.70;;;;;;;12.90;100.00;100912.09;4953429;28;20156;-73
2022/12/20 10:13:55;;;;;;;4.97;2.70;;;;;;;12.83;100.00;100905.81;4951082;28;20052;-73
2022/12/20 10:16:41;;;;;;;9.15;2.83;;;;;;;12.87;100.00;100909.38;4989011;28;20065;-73
2022/12/20 10:19:10;;;;;;;5.15;1.70;;;;;;;12.85;100.00;100903.41;4966975;28;20053;-72
2022/12/20 10:22:03;;;;;;;7.25;2.67;;;;;;;12.91;100.00;100916.47;4990866;28;20062;-72
2022/12/20 10:24:31;;;;;;;5.80;1.85;;;;;;;12.85;100.00;100915.31;4973913;28;20053;-72
2022/12/20 10:27:15;;;;;;;6.63;2.53;;;;;;;12.87;100.00;100901.81;4990127;28;20061;-72
2022/12/20 10:29:42;;;;;;;5.43;2.67;;;;;;;12.86;100.00;100891.91;4991937;28;20050;-71
2022/12/20 10:32:12;;;;;;;2.80;1.20;;;;;;;12.80;100.00;100870.53;4985947;28;20593;-73
2022/12/20 10:34:48;;;;;;;3.60;1.60;;;;;;;12.71;100.00;100865.44;4985570;28;20041;-71
2022/12/20 10:37:15;;;;;;;4.35;1.83;;;;;;;12.79;100.00;100872.50;4989342;28;20042;-73
2022/12/20 10:39:45;;;;;;;3.13;1.35;;;;;;;12.84;100.00;100874.88;4988510;28;20060;-71
2022/12/20 10:42:37;;;;;;;2.88;1.90;;;;;;;12.74;100.00;100859.09;4987835;28;20052;-72
2022/12/20 10:45:22;;;;;;;6.85;2.30;;;;;;;12.89;100.00;100859.75;4982737;28;20108;-71
2022/12/20 10:47:50;;;;;;;4.38;1.92;;;;;;;12.89;100.00;100854.97;4989529;28;20069;-73
2022/12/20 10:50:20;;;;;;;8.30;2.72;;;;;;;12.93;100.00;100846.63;4987109;28;20053;-73
2022/12/20 10:53:10;;;;;;;7.63;2.45;;;;;;;12.97;100.00;100855.72;4987417;28;20054;-73
2022/12/20 10:55:39;;;;;;;4.40;1.85;;;;;;;12.92;100.00;100856.16;4988525;28;20065;-73
2022/12/20 10:58:21;;;;;;;6.13;2.47;;;;;;;12.94;100.00;100862.09;4985417;28;20050;-71
2022/12/20 11:00:48;;;;;;;5.53;1.35;;;;;;;13.00;100.00;100852.16;4967908;28;20153;-75
2022/12/20 11:03:21;;;;;;;6.15;2.28;;;;;;;13.03;100.00;100846.56;4977037;28;20058;-73
2022/12/20 11:06:15;;;;;;;5.38;3.00;;;;;;;13.05;100.00;100832.25;4983227;28;20058;-72
2022/12/20 11:08:41;;;;;;;1.55;0.98;;;;;;;12.94;100.00;100818.47;4984592;28;20054;-74
2022/12/20 11:11:23;;;;;;;2.55;1.67;;;;;;;12.98;100.00;100829.53;4993606;28;21019;-72
2022/12/20 11:13:51;;;;;;;6.65;2.00;;;;;;;13.00;100.00;100821.59;4990470;28;20791;-72
2022/12/20 11:16:28;;;;;;;1.38;1.00;;;;;;;12.98;100.00;100835.06;4994551;28;20116;-71
2022/12/20 11:19:07;;;;;;;8.82;2.08;;;;;;;13.01;100.00;100834.28;4975784;28;20041;-73
2022/12/20 11:21:46;;;;;;;4.10;2.65;;;;;;;13.14;100.00;100804.00;4983166;28;20056;-74
2022/12/20 11:24:41;;;;;;;9.40;2.80;;;;;;;13.11;100.00;100804.81;4992578;28;20046;-73
2022/12/20 11:27:39;;;;;;;8.05;2.75;;;;;;;13.06;100.00;100811.59;4979486;28;20081;-73
2022/12/20 11:30:16;;;;;;;7.72;2.15;;;;;;;13.15;100.00;100806.38;4981857;28;20050;-72
2022/12/20 11:32:51;;;;;;;3.65;1.58;;;;;;;13.12;100.00;100796.06;4991720;28;20054;-74
2022/12/20 11:35:36;;;;;;;;;;;;;;;13.12;100.00;100790.53;4990149;28;20061;-71
2022/12/20 11:38:18;;;;;;;6.75;2.55;;;;;;;13.12;100.00;100790.53;4986141;28;19921;-71
2022/12/20 11:41:00;;;;;;;5.80;2.20;;;;;;;13.08;100.00;100789.78;4987577;28;20076;-72
2022/12/20 11:43:54;;;;;;;5.50;1.92;;;;;;;13.12;100.00;100792.53;4988468;28;20050;-71